createdAt,value
2018-11-22T00:01:37.608Z,62.97
2018-11-22T00:04:19.462Z,58.73
2018-11-22T00:07:01.995Z,67.73
2018-11-22T00:09:44.419Z,64.90
2018-11-22T00:12:26.059Z,63.13
2018-11-22T00:15:07.608Z,68.10
2018-11-22T00:17:49.974Z,65.90
2018-11-22T00:20:32.026Z,66.07
2018-11-22T00:23:14.416Z,64.93
2018-11-22T00:25:56.631Z,61.97
2018-11-22T00:28:38.253Z,66.83
2018-11-22T00:31:20.398Z,66.63
2018-11-22T00:34:02.080Z,64.23
2018-11-22T00:36:43.959Z,57.80
2018-11-22T00:39:25.397Z,62.70
2018-11-22T00:42:07.210Z,62.53
2018-11-22T00:44:48.721Z,67.20
2018-11-22T00:47:30.483Z,63.47
2018-11-22T00:50:14.351Z,63.33
2018-11-22T00:52:56.779Z,62.33
2018-11-22T00:55:39.469Z,66.70
2018-11-22T00:58:21.506Z,63.67
2018-11-22T01:01:03.594Z,69.03
2018-11-22T01:03:45.983Z,62.50
2018-11-22T01:06:27.666Z,69.47
2018-11-22T01:09:09.413Z,62.93
2018-11-22T01:11:51.046Z,64.13
2018-11-22T01:14:32.650Z,61.17
2018-11-22T01:17:14.323Z,62.17
2018-11-22T01:19:56.645Z,71.37
2018-11-22T01:22:38.543Z,69.50
2018-11-22T01:25:20.855Z,64.93
2018-11-22T01:28:02.699Z,65.67
2018-11-22T01:30:44.667Z,65.17
2018-11-22T01:33:26.347Z,66.43
2018-11-22T01:36:08.741Z,65.77
2018-11-22T01:38:51.356Z,65.63
2018-11-22T01:41:32.992Z,67.67
2018-11-22T01:44:15.460Z,72.30
2018-11-22T01:46:57.847Z,65.30
2018-11-22T01:49:40.068Z,70.07
2018-11-22T01:52:21.725Z,64.57
2018-11-22T01:55:04.152Z,60.63
2018-11-22T01:57:46.478Z,61.63
2018-11-22T02:00:28.640Z,66.60
2018-11-22T02:03:10.409Z,60.43
2018-11-22T02:05:51.872Z,65.43
2018-11-22T02:08:33.640Z,65.10
2018-11-22T02:11:15.327Z,66.83
2018-11-22T02:13:58.532Z,68.33
2018-11-22T02:16:40.213Z,64.07
2018-11-22T02:19:22.765Z,61.90
2018-11-22T02:22:04.969Z,62.03
2018-11-22T02:24:46.541Z,62.53
2018-11-22T02:27:28.099Z,60.37
2018-11-22T02:30:10.606Z,68.50
2018-11-22T02:32:53.763Z,67.67
2018-11-22T02:35:36.107Z,66.23
2018-11-22T02:38:17.828Z,66.30
2018-11-22T02:40:59.923Z,71.53
2018-11-22T02:43:41.472Z,67.47
2018-11-22T02:46:23.798Z,65.53
2018-11-22T02:49:05.859Z,68.70
2018-11-22T02:51:47.812Z,67.23
2018-11-22T02:54:29.946Z,66.43
2018-11-22T02:57:11.584Z,65.30
2018-11-22T02:59:53.906Z,60.50
2018-11-22T03:02:36.346Z,69.73
2018-11-22T03:05:18.475Z,61.87
2018-11-22T03:08:00.795Z,67.10
2018-11-22T03:10:42.230Z,60.27
2018-11-22T03:13:23.895Z,60.07
2018-11-22T03:16:05.458Z,63.43
2018-11-22T03:18:47.206Z,60.40
2018-11-22T03:21:29.493Z,57.50
2018-11-22T03:24:11.093Z,65.57
2018-11-22T03:26:52.918Z,61.00
2018-11-22T03:29:34.580Z,62.90
2018-11-22T03:32:16.392Z,62.43
2018-11-22T03:34:58.030Z,56.30
2018-11-22T03:37:41.005Z,59.90
2018-11-22T03:40:24.665Z,61.47
2018-11-22T03:43:07.023Z,65.83
2018-11-22T03:45:48.673Z,66.97
2018-11-22T03:48:30.508Z,66.17
2018-11-22T03:51:12.356Z,64.80
2018-11-22T03:53:54.337Z,69.30
2018-11-22T03:56:35.809Z,70.57
2018-11-22T03:59:17.397Z,69.47
2018-11-22T04:01:59.015Z,66.07
2018-11-22T04:04:40.576Z,62.13
2018-11-22T04:07:22.217Z,71.67
2018-11-22T04:10:04.271Z,62.30
2018-11-22T04:12:46.326Z,61.50
2018-11-22T04:15:28.111Z,69.43
2018-11-22T04:18:10.408Z,66.73
2018-11-22T04:20:51.921Z,71.93
2018-11-22T04:23:34.353Z,68.47
2018-11-22T04:26:16.949Z,73.60
2018-11-22T04:28:58.199Z,72.57
2018-11-22T04:31:39.774Z,75.63
2018-11-22T04:34:21.372Z,70.03
2018-11-22T04:37:02.972Z,63.33
2018-11-22T04:39:45.236Z,70.50
2018-11-22T04:42:27.101Z,67.70
2018-11-22T04:45:10.180Z,74.17
2018-11-22T04:47:53.146Z,69.30
2018-11-22T04:50:37.186Z,79.33
2018-11-22T04:53:19.638Z,70.67
2018-11-22T04:56:02.061Z,72.80
2018-11-22T04:58:44.106Z,72.27
2018-11-22T05:01:25.737Z,71.30
2018-11-22T05:04:07.344Z,76.87
2018-11-22T05:06:49.617Z,76.07
2018-11-22T05:09:32.099Z,77.37
2018-11-22T05:12:13.667Z,75.33
2018-11-22T05:14:56.060Z,73.70
2018-11-22T05:17:37.630Z,74.00
2018-11-22T05:20:20.624Z,74.17
2018-11-22T05:23:02.209Z,72.07
2018-11-22T05:25:44.616Z,77.53
2018-11-22T05:28:26.202Z,81.03
2018-11-22T05:31:07.994Z,71.77
2018-11-22T05:33:50.347Z,73.93
2018-11-22T05:36:32.855Z,75.20
2018-11-22T05:39:14.585Z,69.80
2018-11-22T05:41:57.027Z,71.23
2018-11-22T05:44:38.845Z,70.93
2018-11-22T05:47:20.462Z,71.50
2018-11-22T05:50:01.997Z,73.63
2018-11-22T05:52:44.321Z,70.53
2018-11-22T05:55:26.007Z,71.63
2018-11-22T05:58:07.528Z,75.47
2018-11-22T06:00:50.033Z,74.60
2018-11-22T06:03:32.359Z,74.07
2018-11-22T06:06:14.119Z,71.23
2018-11-22T06:08:55.857Z,76.87
2018-11-22T06:11:37.661Z,73.80
2018-11-22T06:14:19.334Z,72.93
2018-11-22T06:17:01.809Z,75.50
2018-11-22T06:19:43.275Z,76.77
2018-11-22T06:22:24.897Z,74.80
2018-11-22T06:25:06.495Z,70.87
2018-11-22T06:27:48.981Z,80.20
2018-11-22T06:30:32.556Z,83.17
2018-11-22T06:33:14.194Z,74.40
2018-11-22T06:35:55.918Z,82.10
2018-11-22T06:38:38.031Z,82.73
2018-11-22T06:41:19.596Z,77.40
2018-11-22T06:44:01.955Z,81.07
2018-11-22T06:46:43.389Z,82.20
2018-11-22T06:49:28.802Z,83.83
2018-11-22T06:54:53.641Z,87.37
2018-11-22T06:57:35.228Z,83.80
2018-11-22T07:00:18.312Z,81.27
2018-11-22T07:06:09.111Z,80.83
2018-11-22T07:08:50.886Z,81.93
2018-11-22T07:11:32.864Z,86.40
2018-11-22T07:14:14.657Z,89.37
2018-11-22T07:16:56.234Z,92.50
2018-11-22T07:19:38.822Z,89.50
2018-11-22T07:22:21.174Z,92.00
2018-11-22T07:25:04.302Z,96.10
2018-11-22T07:27:46.055Z,88.23
2018-11-22T07:30:32.435Z,98.20
2018-11-22T07:33:15.058Z,88.87
2018-11-22T07:35:56.919Z,95.83
2018-11-22T07:38:38.551Z,96.60
2018-11-22T07:41:20.379Z,99.37
2018-11-22T07:44:02.122Z,94.43
2018-11-22T07:46:43.779Z,95.73
2018-11-22T07:49:25.460Z,100.23
2018-11-22T07:52:07.025Z,112.53
2018-11-22T07:54:48.990Z,106.83
2018-11-22T07:57:30.570Z,103.03
2018-11-22T08:00:12.841Z,108.00
2018-11-22T08:02:54.325Z,100.37
2018-11-22T08:05:37.064Z,96.70
2018-11-22T08:08:19.245Z,102.93
2018-11-22T08:11:00.134Z,95.40
2018-11-22T08:13:49.650Z,98.03
2018-11-22T08:16:39.180Z,90.43
2018-11-22T08:19:28.673Z,93.93
2018-11-22T08:22:18.186Z,88.87
2018-11-22T08:28:16.931Z,87.20
2018-11-22T08:31:06.437Z,91.67
2018-11-22T08:33:55.951Z,84.70
2018-11-22T08:36:45.449Z,91.70
2018-11-22T08:39:34.989Z,83.70
2018-11-22T08:42:24.511Z,85.03
2018-11-22T08:45:15.190Z,75.83
2018-11-22T08:51:13.271Z,90.47
2018-11-22T08:54:02.750Z,85.43
2018-11-22T08:56:52.359Z,77.73
2018-11-22T08:59:41.876Z,72.87
2018-11-22T09:02:31.375Z,75.33
2018-11-22T09:05:22.268Z,78.80
2018-11-22T09:07:53.062Z,84.80
2018-11-22T09:10:42.563Z,79.73
2018-11-22T09:13:32.128Z,78.90
2018-11-22T09:16:21.589Z,76.17
2018-11-22T09:19:11.146Z,76.73
2018-11-22T09:22:00.778Z,76.90
2018-11-22T09:24:50.276Z,73.30
2018-11-22T09:30:54.400Z,74.70
2018-11-22T09:36:52.451Z,68.97
2018-11-22T09:39:41.958Z,73.33
2018-11-22T09:42:32.028Z,79.07
2018-11-22T09:45:40.800Z,70.43
2018-11-22T09:48:30.279Z,71.87
2018-11-22T09:51:19.779Z,64.03
2018-11-22T09:54:09.294Z,63.07
2018-11-22T09:56:58.832Z,68.30
2018-11-22T10:02:56.903Z,67.87
2018-11-22T10:05:46.454Z,69.50
2018-11-22T10:11:26.228Z,64.87
2018-11-22T10:14:15.706Z,71.03
2018-11-22T10:17:05.262Z,64.13
2018-11-22T10:19:54.763Z,58.80
2018-11-22T10:22:45.108Z,70.70
2018-11-22T10:25:34.604Z,68.20
2018-11-22T10:28:24.130Z,67.77
2018-11-22T10:31:13.675Z,62.03
2018-11-22T10:34:03.166Z,64.43
2018-11-22T10:36:52.696Z,62.97
2018-11-22T10:39:42.210Z,65.47
2018-11-22T10:42:31.798Z,64.13
2018-11-22T10:45:22.652Z,57.80
2018-11-22T10:48:13.310Z,56.60
2018-11-22T10:54:18.038Z,68.50
2018-11-22T10:57:07.648Z,65.50
2018-11-22T10:59:57.134Z,63.77
2018-11-22T11:03:05.349Z,60.33
2018-11-22T11:06:13.519Z,60.40
2018-11-22T11:09:03.409Z,64.53
2018-11-22T11:11:52.936Z,62.90
2018-11-22T11:17:51.118Z,64.73
2018-11-22T11:20:40.621Z,61.43
2018-11-22T11:23:30.090Z,72.90
2018-11-22T11:29:34.478Z,65.87
2018-11-22T11:32:24.273Z,67.90
2018-11-22T11:35:15.582Z,66.47
2018-11-22T11:41:19.570Z,62.00
2018-11-22T11:44:09.070Z,66.13
2018-11-22T11:50:27.261Z,74.57
2018-11-22T11:53:16.731Z,70.87
2018-11-22T11:56:25.402Z,68.50
2018-11-22T11:59:14.909Z,60.93
2018-11-22T12:02:04.438Z,64.93
2018-11-22T12:04:54.010Z,66.77
2018-11-22T12:07:43.660Z,67.07
2018-11-22T12:10:33.672Z,67.53
2018-11-22T12:13:23.195Z,69.37
2018-11-22T12:19:27.861Z,71.00
2018-11-22T12:25:32.561Z,70.43
2018-11-22T12:28:22.102Z,73.10
2018-11-22T12:34:45.518Z,70.97
2018-11-22T12:37:53.735Z,66.57
2018-11-22T12:43:51.788Z,61.30
2018-11-22T12:46:41.477Z,68.60
2018-11-22T12:49:31.009Z,67.67
2018-11-22T12:52:20.530Z,61.93
2018-11-22T12:55:10.896Z,66.03
2018-11-22T12:58:03.295Z,72.17
2018-11-22T13:00:50.339Z,66.80
2018-11-22T13:03:39.813Z,71.57
2018-11-22T13:06:29.350Z,68.03
2018-11-22T13:09:18.835Z,69.80
2018-11-22T13:12:08.333Z,70.47
2018-11-22T13:18:12.448Z,70.43
2018-11-22T13:21:01.935Z,68.30
2018-11-22T13:30:40.857Z,72.23
2018-11-22T13:33:31.904Z,68.17
2018-11-22T13:36:21.421Z,62.93
2018-11-22T13:39:12.121Z,75.60
2018-11-22T13:42:01.644Z,69.37
2018-11-22T13:48:06.323Z,76.60
2018-11-22T13:54:04.258Z,73.77
2018-11-22T13:56:53.777Z,70.13
2018-11-22T13:59:44.580Z,81.03
2018-11-22T14:02:34.109Z,76.80
2018-11-22T14:05:23.624Z,70.03
2018-11-22T14:08:13.160Z,70.60
2018-11-22T14:11:02.679Z,76.27
2018-11-22T14:17:07.385Z,78.23
2018-11-22T14:20:10.059Z,78.07
2018-11-22T14:22:59.574Z,74.10
2018-11-22T14:26:13.395Z,77.80
2018-11-22T14:29:40.971Z,78.57
2018-11-22T14:32:30.452Z,75.23
2018-11-22T14:35:27.063Z,80.13
2018-11-22T14:38:18.821Z,75.73
2018-11-22T14:41:08.354Z,70.63
2018-11-22T14:43:57.814Z,73.40
2018-11-22T14:47:10.000Z,72.77
2018-11-22T14:50:07.711Z,73.43
2018-11-22T14:53:18.338Z,70.27
2018-11-22T14:56:07.878Z,80.47
2018-11-22T14:58:57.401Z,83.40
2018-11-22T15:01:46.958Z,75.40
2018-11-22T15:04:36.477Z,79.00
2018-11-22T15:07:28.808Z,76.10
2018-11-22T15:10:16.804Z,78.17
2018-11-22T15:13:06.383Z,83.90
2018-11-22T15:15:55.879Z,76.47
2018-11-22T15:18:45.432Z,78.53
2018-11-22T15:21:34.912Z,77.13
2018-11-22T15:24:24.406Z,81.07
2018-11-22T15:27:15.295Z,87.83
2018-11-22T15:30:26.531Z,76.97
2018-11-22T15:33:16.671Z,80.00
2018-11-22T15:36:14.863Z,86.70
2018-11-22T15:39:05.221Z,86.70
2018-11-22T15:42:16.902Z,84.83
2018-11-22T15:45:11.462Z,92.30
2018-11-22T15:51:35.987Z,92.43
2018-11-22T15:54:29.084Z,95.27
2018-11-22T15:57:20.863Z,91.43
2018-11-22T16:00:29.805Z,102.30
2018-11-22T16:03:24.095Z,88.07
2018-11-22T16:06:19.539Z,103.60
2018-11-22T16:09:15.407Z,98.27
2018-11-22T16:19:12.697Z,102.07
2018-11-22T16:25:34.213Z,96.77
2018-11-22T16:28:27.531Z,109.77
2018-11-22T16:31:40.343Z,107.93
2018-11-22T16:34:34.506Z,106.07
2018-11-22T16:37:56.436Z,104.20
2018-11-22T16:41:07.721Z,100.57
2018-11-22T16:44:03.408Z,104.83
2018-11-22T16:46:52.671Z,116.63
2018-11-22T16:49:42.203Z,106.73
2018-11-22T16:52:31.678Z,98.17
2018-11-22T16:55:21.764Z,106.23
2018-11-22T16:58:11.353Z,106.13
2018-11-22T17:01:00.837Z,105.73
2018-11-22T17:03:50.371Z,105.57
2018-11-22T17:09:48.499Z,115.17
2018-11-22T17:12:37.997Z,118.63
2018-11-22T17:15:46.307Z,109.60
2018-11-22T17:18:35.829Z,107.13
2018-11-22T17:21:25.354Z,110.10
2018-11-22T17:24:14.854Z,103.70
2018-11-22T17:27:04.360Z,118.17
2018-11-22T17:29:53.843Z,100.30
2018-11-22T17:32:43.715Z,108.97
2018-11-22T17:35:33.490Z,119.53
2018-11-22T17:41:38.261Z,103.40
2018-11-22T17:44:27.747Z,109.33
2018-11-22T17:47:17.266Z,107.70
2018-11-22T17:50:08.190Z,106.13
2018-11-22T17:56:06.697Z,108.23
2018-11-22T17:58:56.183Z,114.13
2018-11-22T18:01:45.674Z,100.97
2018-11-22T18:04:35.187Z,106.90
2018-11-22T18:07:24.715Z,104.03
2018-11-22T18:10:16.108Z,119.63
2018-11-22T18:13:05.630Z,111.73
2018-11-22T18:16:13.822Z,117.50
2018-11-22T18:19:03.287Z,112.13
2018-11-22T18:21:52.802Z,119.73
2018-11-22T18:24:42.294Z,111.87
2018-11-22T18:27:31.940Z,112.50
2018-11-22T18:30:25.860Z,117.80
2018-11-22T18:33:15.394Z,124.10
2018-11-22T18:36:04.903Z,106.97
2018-11-22T18:38:54.481Z,118.70
2018-11-22T18:41:43.976Z,117.90
2018-11-22T18:44:33.473Z,107.70
2018-11-22T18:47:22.989Z,121.90
2018-11-22T18:50:17.424Z,116.30
2018-11-22T18:53:07.390Z,117.20
2018-11-22T18:55:56.868Z,108.30
2018-11-22T19:01:53.850Z,116.67
2018-11-22T19:04:36.361Z,116.93
2018-11-22T19:07:18.820Z,104.90
2018-11-22T19:10:00.403Z,108.47
2018-11-22T19:12:42.295Z,105.37
2018-11-22T19:15:25.432Z,104.27
2018-11-22T19:18:07.579Z,108.77
2018-11-22T19:20:49.760Z,111.57
2018-11-22T19:23:32.175Z,105.93
2018-11-22T19:26:13.956Z,107.33
2018-11-22T19:28:56.220Z,110.20
2018-11-22T19:31:38.124Z,91.50
2018-11-22T19:34:20.569Z,102.07
2018-11-22T19:37:02.929Z,109.33
2018-11-22T19:39:44.736Z,107.23
2018-11-22T19:42:26.353Z,105.13
2018-11-22T19:45:07.993Z,108.67
2018-11-22T19:47:50.039Z,106.70
2018-11-22T19:50:31.167Z,95.50
2018-11-22T19:56:35.823Z,100.73
2018-11-22T20:05:55.155Z,102.07
2018-11-22T20:11:59.850Z,96.90
2018-11-22T20:14:49.385Z,101.30
2018-11-22T20:17:38.946Z,105.33
2018-11-22T20:20:28.757Z,99.10
2018-11-22T20:23:21.910Z,111.03
2018-11-22T20:26:07.876Z,108.50
2018-11-22T20:28:57.438Z,99.47
2018-11-22T20:31:46.931Z,105.73
2018-11-22T20:37:52.196Z,90.43
2018-11-22T20:43:50.264Z,93.90
2018-11-22T20:46:39.774Z,91.13
2018-11-22T20:49:29.239Z,116.23
2018-11-22T20:52:18.802Z,99.40
2018-11-22T20:55:36.056Z,93.70
2018-11-22T21:01:34.106Z,100.00
2018-11-22T21:07:32.169Z,98.10
2018-11-22T21:10:40.354Z,96.57
2018-11-22T21:13:29.860Z,97.33
2018-11-22T21:16:19.339Z,100.60
2018-11-22T21:19:08.879Z,96.77
2018-11-22T21:21:58.415Z,102.73
2018-11-22T21:24:47.925Z,98.20
2018-11-22T21:27:37.533Z,96.30
2018-11-22T21:30:31.079Z,95.20
2018-11-22T21:36:35.145Z,97.73
2018-11-22T21:39:24.662Z,107.47
2018-11-22T21:42:14.174Z,95.33
2018-11-22T21:48:12.342Z,105.23
2018-11-22T21:51:01.840Z,108.83
2018-11-22T21:53:51.314Z,107.73
2018-11-22T21:56:40.813Z,109.00
2018-11-22T21:59:30.319Z,107.57
2018-11-22T22:02:19.840Z,106.30
2018-11-22T22:08:18.321Z,92.47
2018-11-22T22:11:07.789Z,103.63
2018-11-22T22:13:57.292Z,96.87
2018-11-22T22:16:46.811Z,93.97
2018-11-22T22:19:36.364Z,96.13
2018-11-22T22:22:25.850Z,96.63
2018-11-22T22:25:16.688Z,94.50
2018-11-22T22:28:06.157Z,90.07
2018-11-22T22:34:10.258Z,91.33
2018-11-22T22:36:59.752Z,87.13
2018-11-22T22:39:49.246Z,88.67
2018-11-22T22:42:39.107Z,98.10
2018-11-22T22:45:29.686Z,81.03
2018-11-22T22:48:19.195Z,99.03
2018-11-22T22:57:32.437Z,72.03
2018-11-22T23:00:43.815Z,92.90
2018-11-22T23:03:33.325Z,82.07
2018-11-22T23:06:22.955Z,87.97
2018-11-22T23:09:13.544Z,93.57
2018-11-22T23:12:03.037Z,94.03
2018-11-22T23:14:52.575Z,89.03
2018-11-22T23:20:50.842Z,83.47
2018-11-22T23:23:40.327Z,90.53
2018-11-22T23:26:29.862Z,85.20
2018-11-22T23:29:19.327Z,85.73
2018-11-22T23:32:08.819Z,95.63
2018-11-22T23:34:58.313Z,84.27
2018-11-22T23:47:35.289Z,84.00
2018-11-22T23:50:43.454Z,88.23
2018-11-22T23:53:32.939Z,87.23
2018-11-22T23:56:22.413Z,83.50
2018-11-22T23:59:11.929Z,82.33
